Login
Access
Login with your mtb-forum.it nickname and password.


You do not have an account? Sign up here for free

panik

Last training unit 17/10/2019
1
Followers
67 604 Km
itineraries
813 750 m
of total vertical gain
2586
hours of riding
26.16 Km/h
average speed
121
average HR


17/10/2019 Show to everybody giro mattutino 55.37 Km 782 m 02:14:03 24.78 Km\h KUOTA EVO
16/10/2019 Show to everybody giro mattutino 50.28 Km 757 m 01:58:24 25.48 Km\h KUOTA EVO
14/10/2019 Show to everybody giro mattutino 47.37 Km 200 m 01:44:15 27.26 Km\h KUOTA EVO
13/10/2019 Show to everybody giro mattutino 131.64 Km 1997 m 05:20:30 24.64 Km\h KUOTA EVO
10/10/2019 Show to everybody giro mattutino 52.27 Km 524 m 01:46:50 29.35 Km\h KUOTA EVO
09/10/2019 Show to everybody giro mattutino 61.27 Km 213 m 02:14:06 27.41 Km\h KUOTA EVO
08/10/2019 Show to everybody giro mattutino 113.43 Km 1014 m 04:10:18 27.19 Km\h KUOTA EVO
04/10/2019 Show to everybody giro mattutino 59.25 Km 377 m 02:04:28 28.56 Km\h KUOTA EVO
03/10/2019 Show to everybody giro mattutino 73.42 Km 1508 m 03:14:30 22.65 Km\h KUOTA EVO
01/10/2019 Show to everybody giro mattutino 111.38 Km 654 m 03:43:29 29.9 Km\h KUOTA EVO
30/09/2019 Show to everybody giro mattutino 50.45 Km 795 m 02:00:12 25.18 Km\h KUOTA EVO
29/09/2019 Show to everybody giro mattutino 131.11 Km 1953 m 04:45:26 27.56 Km\h KUOTA EVO
24/09/2019 Show to everybody giro mattutino 59.28 Km 625 m 02:00:24 29.54 Km\h KUOTA EVO
20/09/2019 Show to everybody giro mattutino 50.74 Km 964 m 02:04:44 24.41 Km\h KUOTA EVO
18/09/2019 Show to everybody giro mattutino 56.48 Km 679 m 02:18:33 24.46 Km\h KUOTA EVO
17/09/2019 Show to everybody giro mattutino 104.18 Km 726 m 03:49:40 27.22 Km\h KUOTA EVO
15/09/2019 Show to everybody giro mattutino 124.21 Km 988 m 04:01:17 30.89 Km\h KUOTA EVO
13/09/2019 Show to everybody giro mattutino 61.88 Km 1116 m 02:34:34 24.02 Km\h KUOTA EVO
12/09/2019 Show to everybody giro mattutino 62.71 Km 694 m 02:13:35 28.17 Km\h KUOTA EVO
11/09/2019 Show to everybody giro mattutino 60.64 Km 660 m 02:13:21 27.28 Km\h KUOTA EVO
10/09/2019 Show to everybody giro mattutino 50.58 Km 783 m 01:58:41 25.57 Km\h KUOTA EVO
09/09/2019 Show to everybody giro mattutino 61.16 Km 625 m 02:06:54 28.92 Km\h KUOTA EVO
29/08/2019 Show to everybody giro mattutino 50.41 Km 710 m 02:08:45 23.49 Km\h KUOTA EVO
28/08/2019 Show to everybody giro mattutino 57.53 Km 379 m 02:07:51 27 Km\h KUOTA EVO
27/08/2019 Show to everybody giro mattutino 35.43 Km 360 m 01:16:25 27.82 Km\h KUOTA EVO
27/08/2019 Show to everybody giro mattutino 8.86 Km 627 m 00:37:47 14.07 Km\h KUOTA EVO
27/08/2019 Show to everybody giro mattutino 15.86 Km 186 m 00:35:47 26.59 Km\h KUOTA EVO
25/08/2019 Show to everybody giro mattutino 86.61 Km 1593 m 03:46:08 22.98 Km\h KUOTA EVO
21/08/2019 Show to everybody giro mattutino 65.44 Km 856 m 02:42:23 24.18 Km\h KUOTA EVO
18/08/2019 Show to everybody giro mattutino 110.1 Km 582 m 03:39:09 30.14 Km\h KUOTA EVO
16/08/2019 Show to everybody giro mattutino 126 Km 2702 m 05:34:11 22.62 Km\h KUOTA EVO
14/08/2019 Show to everybody giro mattutino 54.5 Km 935 m 02:11:30 24.87 Km\h KUOTA EVO
13/08/2019 Show to everybody giro mattutino 55.87 Km 1036 m 02:28:46 22.53 Km\h KUOTA EVO
11/08/2019 Show to everybody giro mattutino 81.35 Km 1313 m 03:24:48 23.83 Km\h KUOTA EVO
09/08/2019 Show to everybody giro mattutino 142.52 Km 992 m 04:57:07 28.78 Km\h KUOTA EVO
08/08/2019 Show to everybody giro mattutino 50.91 Km 700 m 01:56:59 26.11 Km\h KUOTA EVO
06/08/2019 Show to everybody giro mattutino 54.57 Km 937 m 02:11:30 24.9 Km\h KUOTA EVO
04/08/2019 Show to everybody giro mattutino 90.98 Km 1328 m 03:56:12 23.11 Km\h KUOTA EVO
02/08/2019 Show to everybody giro mattutino 68.49 Km 1097 m 02:47:09 24.59 Km\h KUOTA EVO
31/07/2019 Show to everybody giro mattutino 61.61 Km 600 m 02:14:50 27.42 Km\h KUOTA EVO
30/07/2019 Show to everybody giro mattutino 103.18 Km 385 m 03:23:58 30.35 Km\h KUOTA EVO
29/07/2019 Show to everybody giro mattutino 56.72 Km 1037 m 02:33:17 22.2 Km\h KUOTA EVO
26/07/2019 Show to everybody giro mattutino 59.49 Km 923 m 02:33:14 23.29 Km\h KUOTA EVO
24/07/2019 Show to everybody giro mattutino 65.81 Km 803 m 02:34:35 25.54 Km\h KUOTA EVO
23/07/2019 Show to everybody giro mattutino 67.24 Km 618 m 02:23:09 28.18 Km\h KUOTA EVO
22/07/2019 Show to everybody giro mattutino 39.1 Km 170 m 01:20:23 29.19 Km\h KUOTA EVO
21/07/2019 Show to everybody giro mattutino 66.54 Km 1187 m 03:01:01 22.06 Km\h KUOTA EVO
19/07/2019 Show to everybody giro mattutino 23.83 Km 429 m 01:03:29 22.52 Km\h KUOTA EVO
18/07/2019 Show to everybody giro mattutino 44.32 Km 253 m 02:06:22 21.04 Km\h KUOTA EVO
17/07/2019 Show to everybody giro mattutino 32.32 Km 308 m 01:13:04 26.54 Km\h KUOTA EVO
16/07/2019 Show to everybody giro mattutino 48.14 Km 235 m 01:39:06 29.14 Km\h KUOTA EVO
14/07/2019 Show to everybody giro mattutino 74.69 Km 516 m 02:46:07 26.98 Km\h KUOTA EVO
11/07/2019 Show to everybody giro mattutino 40.13 Km 181 m 01:19:48 30.17 Km\h KUOTA EVO
07/07/2019 Show to everybody giro mattutino 64.49 Km 1311 m 03:03:05 21.13 Km\h KUOTA EVO
05/07/2019 Show to everybody giro mattutino 51.63 Km 258 m 01:43:31 29.93 Km\h KUOTA EVO
04/07/2019 Show to everybody giro mattutino 64.34 Km 1185 m 02:40:39 24.03 Km\h KUOTA EVO
02/07/2019 Show to everybody giro mattutino 54.67 Km 991 m 02:14:06 24.46 Km\h KUOTA EVO
30/06/2019 Show to everybody giro mattutino 49.99 Km 1233 m 02:55:32 17.09 Km\h KUOTA EVO
28/06/2019 Show to everybody Giro mattutino 51.33 Km 867 m 02:09:50 23.72 Km\h KUOTA EVO
26/06/2019 Show to everybody Giro mattutino 42.63 Km 491 m 01:38:27 25.98 Km\h KUOTA EVO
23/06/2019 Show to everybody Giro mattutino 143.71 Km 3853 m 07:00:53 20.49 Km\h KUOTA EVO
19/06/2019 Show to everybody Giro mattutino 62.06 Km 532 m 02:11:37 28.29 Km\h KUOTA EVO
16/06/2019 Show to everybody Giro mattutino 212.87 Km 4900 m 09:29:51 22.41 Km\h KUOTA EVO
15/06/2019 Show to everybody Giro mattutino 41.78 Km 294 m 01:28:37 28.29 Km\h KUOTA EVO
11/06/2019 Show to everybody Giro mattutino 41.55 Km 259 m 01:39:35 25.03 Km\h KUOTA EVO
09/06/2019 Show to everybody Giro mattutino 134.36 Km 2312 m 05:15:39 25.54 Km\h KUOTA EVO
05/06/2019 Show to everybody Giro mattutino 192.66 Km 4214 m 08:42:16 22.13 Km\h KUOTA EVO
02/06/2019 Show to everybody Giro mattutino 211.28 Km 1108 m 06:32:16 32.32 Km\h KUOTA EVO
31/05/2019 Show to everybody Giro mattutino 82.56 Km 1220 m 03:09:39 26.12 Km\h KUOTA EVO
30/05/2019 Show to everybody Giro mattutino 34.72 Km 285 m 01:30:21 23.06 Km\h KUOTA EVO
25/05/2019 Show to everybody Giro mattutino 71.97 Km 904 m 02:49:58 25.41 Km\h KUOTA EVO
23/05/2019 Show to everybody Giro mattutino 82.57 Km 1491 m 03:16:57 25.16 Km\h KUOTA EVO
22/05/2019 Show to everybody Giro mattutino 70.45 Km 1373 m 02:53:01 24.43 Km\h KUOTA EVO
17/05/2019 Show to everybody Giro mattutino 103.16 Km 2030 m 04:27:04 23.18 Km\h KUOTA EVO
16/05/2019 Show to everybody Giro mattutino 76.4 Km 1047 m 02:37:48 29.05 Km\h KUOTA EVO
14/05/2019 Show to everybody Giro mattutino 73.03 Km 1075 m 02:52:44 25.37 Km\h KUOTA EVO
12/05/2019 Show to everybody Giro mattutino 80.23 Km 1179 m 03:13:26 24.89 Km\h KUOTA EVO
11/05/2019 Show to everybody Giro mattutino 104.54 Km 1620 m 04:22:06 23.93 Km\h KUOTA EVO
10/05/2019 Show to everybody Giro mattutino 60.82 Km 1039 m 02:22:52 25.54 Km\h KUOTA EVO
07/05/2019 Show to everybody Giro mattutino 53.37 Km 629 m 02:08:18 24.96 Km\h KUOTA EVO
06/05/2019 Show to everybody Giro mattutino 58.58 Km 398 m 02:03:51 28.38 Km\h KUOTA EVO
02/05/2019 Show to everybody Giro mattutino 56.16 Km 1009 m 02:34:30 21.81 Km\h KUOTA EVO
01/05/2019 Show to everybody Giro mattutino 123.45 Km 1055 m 04:28:50 27.55 Km\h KUOTA EVO
30/04/2019 Show to everybody Giro mattutino 64.35 Km 1144 m 02:38:27 24.37 Km\h KUOTA EVO
28/04/2019 Show to everybody Giro mattutino 80.44 Km 1023 m 03:12:52 25.02 Km\h KUOTA EVO
27/04/2019 Show to everybody Giro mattutino 100.86 Km 1607 m 03:53:29 25.92 Km\h KUOTA EVO
25/04/2019 Show to everybody Giro mattutino 111.9 Km 1399 m 04:17:36 26.06 Km\h KUOTA EVO
24/04/2019 Show to everybody Giro mattutino 71.84 Km 663 m 02:26:41 29.39 Km\h KUOTA EVO
22/04/2019 Show to everybody Giro mattutino 100.9 Km 1126 m 03:35:42 28.07 Km\h KUOTA EVO
19/04/2019 Show to everybody Giro mattutino 60.68 Km 1302 m 02:37:03 23.18 Km\h KUOTA EVO
18/04/2019 Show to everybody Giro mattutino 72.31 Km 1002 m 02:40:01 27.11 Km\h KUOTA EVO
17/04/2019 Show to everybody Giro mattutino 16.66 Km 187 m 00:42:11 23.7 Km\h KUOTA EVO
16/04/2019 Show to everybody Giro mattutino 113.94 Km 2574 m 05:00:06 22.78 Km\h KUOTA EVO
15/04/2019 Show to everybody Giro mattutino 50.33 Km 691 m 02:03:22 24.48 Km\h KUOTA EVO
13/04/2019 Show to everybody Giro mattutino 53.15 Km 566 m 01:51:40 28.56 Km\h KUOTA EVO
11/04/2019 Show to everybody Giro mattutino 50.91 Km 540 m 01:56:27 26.23 Km\h KUOTA EVO
10/04/2019 Show to everybody Giro mattutino 105.01 Km 1448 m 04:02:32 25.98 Km\h KUOTA EVO
08/04/2019 Show to everybody Giro mattutino 49.26 Km 550 m 01:52:05 26.37 Km\h KUOTA EVO
05/04/2019 Show to everybody Giro mattutino 73.57 Km 302 m 02:25:31 30.33 Km\h KUOTA EVO
01/04/2019 Show to everybody Giro mattutino 50.59 Km 483 m 01:54:50 26.43 Km\h KUOTA EVO
31/03/2019 Show to everybody Giro mattutino 91.53 Km 1536 m 02:54:28 31.48 Km\h KUOTA EVO
29/03/2019 Show to everybody Giro mattutino 55.84 Km 1099 m 02:26:14 22.91 Km\h KUOTA EVO
28/03/2019 Show to everybody Giro mattutino 55.59 Km 828 m 01:57:42 28.34 Km\h KUOTA EVO
24/03/2019 Show to everybody Giro mattutino 103.97 Km 2011 m 04:32:38 22.88 Km\h KUOTA EVO
22/03/2019 Show to everybody Giro mattutino 74.92 Km 1754 m 03:14:36 23.1 Km\h KUOTA EVO
20/03/2019 Show to everybody Giro mattutino 69.99 Km 1636 m 03:10:47 22.01 Km\h KUOTA EVO
17/03/2019 Show to everybody Giro mattutino 102.76 Km 1650 m 04:06:16 25.04 Km\h KUOTA EVO
15/03/2019 Show to everybody Giro mattutino 61.5 Km 1079 m 02:29:25 24.7 Km\h KUOTA EVO
12/03/2019 Show to everybody Giro mattutino 72.94 Km 1209 m 02:54:44 25.05 Km\h KUOTA EVO
10/03/2019 Show to everybody Giro mattutino 85.94 Km 1654 m 02:55:40 29.35 Km\h KUOTA EVO
06/03/2019 Show to everybody Giro mattutino 61.03 Km 1358 m 02:37:05 23.31 Km\h KUOTA EVO
04/03/2019 Show to everybody Giro mattutino 33.43 Km 142 m 01:17:53 25.75 Km\h KUOTA EVO
03/03/2019 Show to everybody Giro mattutino 91.65 Km 1524 m 03:58:57 23.01 Km\h KUOTA EVO
01/03/2019 Show to everybody Giro mattutino 68.5 Km 1063 m 02:45:02 24.9 Km\h KUOTA EVO
26/02/2019 Show to everybody Giro mattutino 122.58 Km 698 m 04:18:05 28.5 Km\h KUOTA EVO
25/02/2019 Show to everybody Giro mattutino 57.16 Km 1225 m 02:28:41 23.07 Km\h KUOTA EVO
24/02/2019 Show to everybody Giro mattutino 80.51 Km 1247 m 03:28:43 23.14 Km\h KUOTA EVO
21/02/2019 Show to everybody Giro mattutino 61.67 Km 1004 m 02:51:41 21.55 Km\h KUOTA EVO
20/02/2019 Show to everybody Giro mattutino 3.26 Km 0 m 00:08:05 24.17 Km\h KUOTA EVO
20/02/2019 Show to everybody Giro mattutino 6.03 Km 86 m 00:15:17 23.67 Km\h KUOTA EVO
20/02/2019 Show to everybody Giro mattutino 84.53 Km 1611 m 03:19:39 25.4 Km\h KUOTA EVO
19/02/2019 Show to everybody Giro mattutino 52.31 Km 986 m 02:12:43 23.65 Km\h KUOTA EVO
17/02/2019 Show to everybody Giro mattutino 106.52 Km 609 m 03:40:26 28.99 Km\h KUOTA EVO
15/02/2019 Show to everybody Giro mattutino 40.59 Km 565 m 01:41:26 24.01 Km\h KUOTA EVO
14/02/2019 Show to everybody Giro mattutino 70.66 Km 1405 m 03:14:42 21.77 Km\h KUOTA EVO
12/02/2019 Show to everybody Giro mattutino 57.36 Km 1116 m 02:21:47 24.27 Km\h KUOTA EVO
10/02/2019 Show to everybody Giro mattutino 100.47 Km 429 m 03:26:28 29.2 Km\h KUOTA EVO
07/02/2019 Show to everybody Giro mattutino 79.09 Km 1378 m 03:28:48 22.73 Km\h KUOTA EVO
05/02/2019 Show to everybody Giro mattutino 61.87 Km 1047 m 02:33:28 24.19 Km\h KUOTA EVO
27/01/2019 Show to everybody Giro mattutino 85.67 Km 1100 m 03:18:34 25.89 Km\h KUOTA EVO
26/01/2019 Show to everybody Giro mattutino 75.44 Km 1042 m 02:51:27 26.4 Km\h KUOTA EVO
18/01/2019 Show to everybody Giro mattutino 62.1 Km 1281 m 02:39:09 23.41 Km\h KUOTA EVO
16/01/2019 Show to everybody Giro mattutino 101.17 Km 1190 m 03:50:24 26.35 Km\h KUOTA EVO
15/01/2019 Show to everybody Giro mattutino 48.44 Km 495 m 01:52:13 25.9 Km\h KUOTA EVO
14/01/2019 Show to everybody Giro mattutino 40.07 Km 285 m 01:30:42 26.51 Km\h KUOTA EVO
13/01/2019 Show to everybody Giro mattutino 70.35 Km 1316 m 03:04:34 22.87 Km\h KUOTA EVO
10/01/2019 Show to everybody Giro mattutino 78.57 Km 1497 m 03:28:15 22.64 Km\h KUOTA EVO
06/01/2019 Show to everybody Giro mattutino 57.05 Km 1243 m 02:35:27 22.02 Km\h KUOTA EVO
03/01/2019 Show to everybody Giro mattutino 66.59 Km 520 m 02:28:01 26.99 Km\h KUOTA EVO
01/01/2019 Show to everybody Giro mattutino 64.03 Km 1273 m 02:57:33 21.64 Km\h KUOTA EVO
30/12/2018 Show to everybody Giro mattutino 121.22 Km 750 m 03:47:55 31.91 Km\h KUOTA EVO
29/12/2018 Show to everybody Giro mattutino 61.37 Km 725 m 02:25:56 25.23 Km\h KUOTA EVO
27/12/2018 Show to everybody Giro mattutino 46.03 Km 385 m 01:47:58 25.58 Km\h KUOTA EVO
19/12/2018 Show to everybody Giro pomeridiano 44.2 Km 831 m 02:02:02 21.73 Km\h KUOTA EVO
16/12/2018 Show to everybody Giro mattutino con bocciodromo 111.04 Km 497 m 03:36:24 30.79 Km\h KUOTA EVO
11/12/2018 Show to everybody Giro pomeridiano 49.06 Km 950 m 02:18:05 21.32 Km\h KUOTA EVO
10/12/2018 Show to everybody Giro pomeridiano 47.87 Km 937 m 02:14:48 21.31 Km\h KUOTA EVO
08/12/2018 Show to everybody Giro pomeridiano 74.45 Km 935 m 02:55:37 25.44 Km\h KUOTA EVO
07/12/2018 Show to everybody Giro pomeridiano 50.33 Km 989 m 02:19:38 21.63 Km\h KUOTA EVO
05/12/2018 Show to everybody Giro pomeridiano 61.75 Km 1152 m 02:45:07 22.44 Km\h KUOTA EVO
04/12/2018 Show to everybody Giro pomeridiano 80.6 Km 1071 m 03:20:49 24.08 Km\h KUOTA EVO
02/12/2018 Show to everybody Giro mattutino 65.97 Km 319 m 03:14:43 20.33 Km\h KUOTA EVO
29/11/2018 Show to everybody Giro pomeridiano 82.24 Km 1091 m 03:18:09 24.9 Km\h KUOTA EVO
27/11/2018 Show to everybody Giro pomeridiano 62.51 Km 826 m 02:30:32 24.92 Km\h KUOTA EVO
26/11/2018 Show to everybody Giro pomeridiano 39.02 Km 748 m 01:43:20 22.66 Km\h KUOTA EVO
22/11/2018 Show to everybody Giro pomeridiano 100.78 Km 1343 m 04:06:28 24.53 Km\h KUOTA EVO
15/11/2018 Show to everybody Giro pomeridiano 74.16 Km 902 m 02:49:36 26.24 Km\h KUOTA EVO
14/11/2018 Show to everybody Giro pomeridiano 56.45 Km 933 m 02:30:43 22.47 Km\h KUOTA EVO
13/11/2018 Show to everybody Giro mattutino 56.62 Km 554 m 02:09:28 26.24 Km\h KUOTA EVO
12/11/2018 Show to everybody Giro mattutino 50.74 Km 474 m 01:54:31 26.58 Km\h KUOTA EVO
09/11/2018 Show to everybody Giro pomeridiano 46.21 Km 688 m 02:01:02 22.91 Km\h KUOTA EVO
14/10/2018 Show to everybody Giro mattutino 106.01 Km 2249 m 04:17:48 24.67 Km\h KUOTA EVO
12/10/2018 Show to everybody Giro pomeridiano 49.93 Km 577 m 02:11:32 22.78 Km\h KUOTA EVO
10/10/2018 Show to everybody Giro pomeridiano 40.29 Km 54 m 01:37:27 24.81 Km\h KUOTA EVO
07/10/2018 Show to everybody Giro mattutino con bocciodromo 125.09 Km 1006 m 03:56:53 31.68 Km\h KUOTA EVO
03/10/2018 Show to everybody Giro pomeridiano 59.2 Km 501 m 02:10:34 27.2 Km\h KUOTA EVO
27/09/2018 Show to everybody Giro pomeridiano 41.75 Km 559 m 01:49:56 22.79 Km\h KUOTA EVO
23/09/2018 Show to everybody Giro mattutino 112.71 Km 1797 m 04:05:06 27.59 Km\h KUOTA EVO
20/09/2018 Show to everybody Giro pomeridiano 51.51 Km 642 m 02:09:49 23.81 Km\h KUOTA EVO
19/09/2018 Show to everybody Giro pomeridiano 50.58 Km 771 m 02:11:22 23.1 Km\h KUOTA EVO
16/09/2018 Show to everybody Giro mattutino con bocciodromo 124.41 Km 781 m 03:54:59 31.77 Km\h KUOTA EVO
14/09/2018 Show to everybody Giro pomeridiano 62.29 Km 901 m 02:34:21 24.21 Km\h KUOTA EVO
12/09/2018 Show to everybody Giro pomeridiano 47.93 Km 1008 m 02:11:46 21.82 Km\h KUOTA EVO
11/09/2018 Show to everybody Giro pomeridiano 60.81 Km 692 m 02:22:55 25.53 Km\h KUOTA EVO
09/09/2018 Show to everybody Giro mattutino 133.48 Km 1250 m 04:35:42 29.05 Km\h KUOTA EVO
08/09/2018 Show to everybody Giro pomeridiano 54.95 Km 335 m 02:06:51 25.99 Km\h KUOTA EVO
06/09/2018 Show to everybody Giro mattutino 56.93 Km 577 m 02:03:06 27.75 Km\h KUOTA EVO
05/09/2018 Show to everybody Giro pomeridiano 51.98 Km 718 m 02:08:05 24.35 Km\h KUOTA EVO
04/09/2018 Show to everybody Giro pomeridiano 50.92 Km 748 m 02:01:04 25.23 Km\h KUOTA EVO
02/09/2018 Show to everybody Giro mattutino con bocciodromo 133.11 Km 719 m 04:06:20 32.42 Km\h KUOTA EVO
31/08/2018 Show to everybody Giro pomeridiano 36.35 Km 722 m 01:28:52 24.54 Km\h KUOTA EVO
29/08/2018 Show to everybody Giro pomeridiano 70.26 Km 1016 m 02:45:00 25.55 Km\h KUOTA EVO
27/08/2018 Show to everybody Giro pomeridiano 61.56 Km 1121 m 02:25:21 25.41 Km\h KUOTA EVO
24/08/2018 Show to everybody Giro mattutino 45.07 Km 493 m 01:42:24 26.41 Km\h KUOTA EVO
20/08/2018 Show to everybody Giro pomeridiano 45.67 Km 899 m 02:01:03 22.64 Km\h KUOTA EVO
19/08/2018 Show to everybody Giro mattutino 101.59 Km 1627 m 04:04:22 24.94 Km\h KUOTA EVO
17/08/2018 Show to everybody Giro pomeridiano 60.61 Km 919 m 02:35:24 23.4 Km\h KUOTA EVO
14/08/2018 Show to everybody Giro pomeridiano 24.55 Km 660 m 01:22:35 17.84 Km\h KUOTA EVO
12/08/2018 Show to everybody Giro mattutino 102.43 Km 1914 m 04:38:57 22.03 Km\h KUOTA EVO
09/08/2018 Show to everybody Giro mattutino 81.3 Km 1339 m 03:35:09 22.67 Km\h KUOTA EVO
08/08/2018 Show to everybody Giro mattutino 66.09 Km 1130 m 02:36:58 25.26 Km\h KUOTA EVO
05/08/2018 Show to everybody Giro mattutino con bocciodromo 92.87 Km 1354 m 03:52:44 23.94 Km\h KUOTA EVO
03/08/2018 Show to everybody Giro pomeridiano 72.23 Km 1235 m 02:58:03 24.34 Km\h KUOTA EVO
31/07/2018 Show to everybody Giro mattutino 81.56 Km 761 m 03:09:42 25.8 Km\h KUOTA EVO
30/07/2018 Show to everybody Giro mattutino 51.87 Km 492 m 02:04:42 24.96 Km\h KUOTA EVO
28/07/2018 Show to everybody Giro pomeridiano 73.16 Km 1101 m 02:55:18 25.04 Km\h KUOTA EVO
24/07/2018 Show to everybody Giro pomeridiano 32.51 Km 614 m 01:22:41 23.59 Km\h KUOTA EVO
23/07/2018 Show to everybody Giro pomeridiano 57.11 Km 1025 m 02:28:32 23.07 Km\h KUOTA EVO
22/07/2018 Show to everybody Giro mattutino 91.58 Km 1530 m 03:53:02 23.58 Km\h KUOTA EVO
18/07/2018 Show to everybody Giro pomeridiano 33.09 Km 434 m 01:16:27 25.97 Km\h KUOTA EVO
17/07/2018 Show to everybody Giro pomeridiano 33.16 Km 421 m 01:16:02 26.17 Km\h KUOTA EVO
15/07/2018 Show to everybody Giro mattutino 80.77 Km 674 m 02:55:27 27.62 Km\h KUOTA EVO
23/06/2018 Show to everybody Giro mattutino 201.54 Km 2048 m 07:28:41 26.95 Km\h KUOTA EVO
20/06/2018 Show to everybody Giro mattutino 110.81 Km 1372 m 04:58:11 22.3 Km\h KUOTA EVO
19/06/2018 Show to everybody Giro pomeridiano 47.27 Km 705 m 01:51:34 25.42 Km\h KUOTA EVO
17/06/2018 Show to everybody Giro mattutino 131.59 Km 2873 m 06:04:47 21.64 Km\h KUOTA EVO
15/06/2018 Show to everybody Giro pomeridiano 81.15 Km 1306 m 03:12:22 25.31 Km\h KUOTA EVO
12/06/2018 Show to everybody Giro pomeridiano 50.49 Km 855 m 02:05:19 24.17 Km\h KUOTA EVO
10/06/2018 Show to everybody Giro mattutino 131.72 Km 1683 m 04:46:30 27.59 Km\h KUOTA EVO
09/06/2018 Show to everybody Giro pomeridiano 51.55 Km 468 m 02:07:06 24.33 Km\h KUOTA EVO
05/06/2018 Show to everybody Giro pomeridiano 64.7 Km 1548 m 02:58:36 21.74 Km\h KUOTA EVO
04/06/2018 Show to everybody Giro pomeridiano 60.34 Km 938 m 02:21:42 25.55 Km\h KUOTA EVO
31/05/2018 Show to everybody Giro pomeridiano 81.59 Km 383 m 02:48:28 29.06 Km\h KUOTA EVO
29/05/2018 Show to everybody Giro pomeridiano 72.76 Km 1184 m 03:00:37 24.17 Km\h KUOTA EVO
28/05/2018 Show to everybody Giro pomeridiano 60.14 Km 231 m 02:06:02 28.63 Km\h KUOTA EVO
27/05/2018 Show to everybody Giro mattutino con bocciodromo 138.44 Km 1888 m 05:26:12 25.46 Km\h KUOTA EVO
26/05/2018 Show to everybody Giro pomeridiano 82.98 Km 1167 m 03:15:55 25.41 Km\h KUOTA EVO
23/05/2018 Show to everybody Giro pomeridiano 48.41 Km 1020 m 01:58:18 24.55 Km\h KUOTA EVO
20/05/2018 Show to everybody Giro mattutino 122.89 Km 2202 m 04:43:17 26.03 Km\h KUOTA EVO
16/05/2018 Show to everybody Giro pomeridiano 50.48 Km 812 m 01:54:28 26.46 Km\h KUOTA EVO
13/05/2018 Show to everybody Giro mattutino 104.35 Km 1912 m 04:41:53 22.21 Km\h KUOTA EVO
11/05/2018 Show to everybody Giro pomeridiano 65.44 Km 1274 m 02:41:31 24.31 Km\h KUOTA EVO
09/05/2018 Show to everybody Giro pomeridiano 47.56 Km 1021 m 01:57:18 24.33 Km\h KUOTA EVO
06/05/2018 Show to everybody Giro mattutino 81.27 Km 1438 m 03:39:10 22.25 Km\h KUOTA EVO
01/05/2018 Show to everybody Giro mattutino 82.12 Km 1110 m 03:20:53 24.53 Km\h KUOTA EVO
29/04/2018 Show to everybody Giro mattutino 87.85 Km 1241 m 03:42:37 23.68 Km\h KUOTA EVO
28/04/2018 Show to everybody Giro mattutino 76.1 Km 842 m 02:42:16 28.14 Km\h KUOTA EVO
27/04/2018 Show to everybody Giro mattutino 75.9 Km 857 m 02:48:11 27.08 Km\h KUOTA EVO
27/04/2018 Show to everybody Giro pomeridiano 63.49 Km 1118 m 02:37:04 24.25 Km\h KUOTA EVO
25/04/2018 Show to everybody Giro mattutino 113.69 Km 1194 m 03:48:00 29.92 Km\h KUOTA EVO
24/04/2018 Show to everybody Giro pomeridiano 56.02 Km 1213 m 02:23:40 23.4 Km\h KUOTA EVO
22/04/2018 Show to everybody Giro mattutino 130.65 Km 1763 m 03:51:01 33.93 Km\h KUOTA EVO
21/04/2018 Show to everybody Giro pomeridiano 27.19 Km 564 m 01:22:09 19.86 Km\h KUOTA EVO
19/04/2018 Show to everybody Giro pomeridiano 81.61 Km 1075 m 03:11:06 25.62 Km\h KUOTA EVO
18/04/2018 Show to everybody Giro pomeridiano 61.38 Km 1175 m 02:45:46 22.22 Km\h KUOTA EVO
16/04/2018 Show to everybody Giro pomeridiano 51.47 Km 222 m 01:52:06 27.55 Km\h KUOTA EVO
15/04/2018 Show to everybody Giro mattutino 132.22 Km 2597 m 04:34:52 28.86 Km\h KUOTA EVO
13/04/2018 Show to everybody Giro pomeridiano 80.85 Km 757 m 02:52:30 28.12 Km\h KUOTA EVO
12/04/2018 Show to everybody Giro pomeridiano 62.61 Km 819 m 02:19:21 26.96 Km\h KUOTA EVO
08/04/2018 Show to everybody 21° GRANFONDO "PAOLO BETTINI" - Pomarance 191° assoluto - 17° di categoria 132.97 Km 2451 m 04:26:45 29.91 Km\h KUOTA EVO
06/04/2018 Show to everybody Giro pomeridiano 72.74 Km 329 m 02:26:42 29.75 Km\h KUOTA EVO
05/04/2018 Show to everybody Giro pomeridiano 50.16 Km 538 m 01:44:53 28.69 Km\h KUOTA EVO
03/04/2018 Show to everybody Giro mattutino 103.72 Km 1708 m 04:19:57 23.94 Km\h KUOTA EVO
02/04/2018 Show to everybody Giro mattutino 50.38 Km 1141 m 02:06:45 23.85 Km\h KUOTA EVO
30/03/2018 Show to everybody Giro mattutino 102.28 Km 856 m 04:01:33 25.41 Km\h KUOTA EVO
28/03/2018 Show to everybody Giro pomeridiano 62.55 Km 1207 m 02:29:17 25.14 Km\h KUOTA EVO
26/03/2018 Show to everybody Giro pomeridiano 55.45 Km 240 m 02:03:55 26.85 Km\h KUOTA EVO
25/03/2018 Show to everybody Giro mattutino 108.13 Km 2142 m 03:55:02 27.6 Km\h KUOTA EVO
23/03/2018 Show to everybody Giro pomeridiano 73.07 Km 1100 m 02:57:13 24.74 Km\h KUOTA EVO
21/03/2018 Show to everybody Giro pomeridiano 45.32 Km 1037 m 01:59:20 22.78 Km\h KUOTA EVO
20/03/2018 Show to everybody Giro pomeridiano 52.07 Km 914 m 02:01:40 25.68 Km\h KUOTA EVO
14/03/2018 Show to everybody Giro pomeridiano 75.41 Km 1292 m 03:08:50 23.96 Km\h KUOTA EVO
09/03/2018 Show to everybody Giro pomeridiano 66.75 Km 678 m 02:36:21 25.62 Km\h KUOTA EVO
08/03/2018 Show to everybody Giro pomeridiano 101.88 Km 1418 m 04:06:49 24.77 Km\h KUOTA EVO
07/03/2018 Show to everybody Giro pomeridiano 50.24 Km 1108 m 02:13:22 22.6 Km\h KUOTA EVO
04/03/2018 Show to everybody Giro mattutino con bocciodromo 105.56 Km 842 m 03:36:53 29.2 Km\h KUOTA EVO
24/02/2018 Show to everybody Giro pomeridiano 59.39 Km 1305 m 02:39:31 22.34 Km\h KUOTA EVO
20/02/2018 Show to everybody Giro pomeridiano 64.45 Km 671 m 02:20:24 27.54 Km\h KUOTA EVO
19/02/2018 Show to everybody Giro pomeridiano 50.32 Km 1156 m 02:17:32 21.95 Km\h KUOTA EVO
16/02/2018 Show to everybody Giro mattutino 51.48 Km 1087 m 02:15:39 22.77 Km\h KUOTA EVO
14/02/2018 Show to everybody Giro pomeridiano 52.27 Km 862 m 02:12:16 23.71 Km\h KUOTA EVO
11/02/2018 Show to everybody Giro mattutino 80.16 Km 1368 m 03:28:38 23.05 Km\h KUOTA EVO
10/02/2018 Show to everybody Giro pomeridiano 52.05 Km 1196 m 02:21:23 22.09 Km\h KUOTA EVO
07/02/2018 Show to everybody Giro mattutino 34.82 Km 748 m 01:31:21 22.87 Km\h KUOTA EVO
30/01/2018 Show to everybody Giro pomeridiano 62.11 Km 1186 m 02:33:24 24.29 Km\h KUOTA EVO
28/01/2018 Show to everybody Giro mattutino con bocciodromo 117.85 Km 938 m 03:52:07 30.46 Km\h KUOTA EVO
24/01/2018 Show to everybody Giro pomeridiano 60.16 Km 606 m 02:16:44 26.4 Km\h KUOTA EVO
21/01/2018 Show to everybody Giro mattutino 108.96 Km 721 m 03:32:00 30.84 Km\h KUOTA EVO
20/01/2018 Show to everybody Giro pomeridiano 42.67 Km 955 m 01:56:11 22.04 Km\h KUOTA EVO
17/01/2018 Show to everybody Giro pomeridiano 41.6 Km 885 m 01:53:26 22.01 Km\h KUOTA EVO
14/01/2018 Show to everybody Giro mattutino con bocciodromo 112.45 Km 1111 m 03:59:01 28.23 Km\h KUOTA EVO
13/01/2018 Show to everybody Giro pomeridiano 58.49 Km 1037 m 02:32:57 22.95 Km\h KUOTA EVO
09/01/2018 Show to everybody Giro pomeridiano 56.17 Km 1124 m 02:30:10 22.44 Km\h KUOTA EVO
07/01/2018 Show to everybody Giro mattutino 84.47 Km 1172 m 03:18:48 25.49 Km\h KUOTA EVO
02/01/2018 Show to everybody Giro mattutino 55.1 Km 1046 m 02:28:35 22.25 Km\h KUOTA EVO
31/12/2017 Show to everybody Giro mattutino 106.6 Km 1034 m 03:57:42 26.91 Km\h KUOTA EVO
24/12/2017 Show to everybody Giro mattutino con bocciodromo 101.02 Km 627 m 03:16:12 30.89 Km\h KUOTA EVO
17/12/2017 Show to everybody Giro mattutino 111.24 Km 800 m 04:03:41 27.39 Km\h KUOTA EVO
06/12/2017 Show to everybody Giro pomeridiano 41.25 Km 877 m 01:50:24 22.42 Km\h KUOTA EVO
04/12/2017 Show to everybody Giro pomeridiano 14.16 Km 308 m 00:39:45 21.38 Km\h KUOTA EVO
04/12/2017 Show to everybody Giro pomeridiano 31.13 Km 691 m 01:21:47 22.84 Km\h KUOTA EVO
27/11/2017 Show to everybody Giro pomeridiano 48.71 Km 986 m 02:08:53 22.67 Km\h KUOTA EVO
26/11/2017 Show to everybody Giro mattutino 34.88 Km 725 m 01:30:54 23.02 Km\h KUOTA EVO
23/11/2017 Show to everybody Giro mattutino 52.91 Km 1111 m 02:20:22 22.62 Km\h KUOTA EVO
21/11/2017 Show to everybody Giro mattutino 50.04 Km 1103 m 02:15:52 22.1 Km\h KUOTA EVO
19/11/2017 Show to everybody Giro mattutino con bocciodromo 113.52 Km 679 m 03:43:06 30.53 Km\h KUOTA EVO
17/11/2017 Show to everybody Giro pomeridiano 56.11 Km 1090 m 02:30:19 22.4 Km\h KUOTA EVO
16/11/2017 Show to everybody Giro pomeridiano 68.17 Km 346 m 02:28:47 27.49 Km\h KUOTA EVO
11/11/2017 Show to everybody Giro pomeridiano 70.27 Km 298 m 02:39:11 26.49 Km\h KUOTA EVO
10/11/2017 Show to everybody Giro mattutino 50.89 Km 707 m 02:06:11 24.2 Km\h KUOTA EVO
08/11/2017 Show to everybody Giro pomeridiano 51.63 Km 837 m 02:14:04 23.11 Km\h KUOTA EVO
04/11/2017 Show to everybody Giro pomeridiano 59.28 Km 923 m 02:37:07 22.64 Km\h KUOTA EVO
01/11/2017 Show to everybody Giro mattutino 76.36 Km 1039 m 03:11:48 23.89 Km\h KUOTA EVO
29/10/2017 Show to everybody Giro mattutino 105.89 Km 1588 m 04:05:22 25.89 Km\h KUOTA EVO
25/10/2017 Show to everybody Giro pomeridiano 60.65 Km 1131 m 02:26:28 24.84 Km\h KUOTA EVO
24/10/2017 Show to everybody Giro mattutino 46.86 Km 511 m 01:39:28 28.27 Km\h KUOTA EVO
24/10/2017 Show to everybody Giro mattutino 37.54 Km 324 m 01:11:29 31.51 Km\h KUOTA EVO
23/10/2017 Show to everybody Giro pomeridiano 65.01 Km 768 m 02:24:58 26.91 Km\h KUOTA EVO
19/10/2017 Show to everybody Giro pomeridiano 51.32 Km 748 m 02:04:13 24.79 Km\h KUOTA EVO
17/10/2017 Show to everybody Giro pomeridiano 50.27 Km 774 m 01:59:18 25.28 Km\h KUOTA EVO
15/10/2017 Show to everybody Giro mattutino 103.67 Km 1020 m 04:07:40 25.12 Km\h KUOTA EVO
13/10/2017 Show to everybody Giro pomeridiano 55.31 Km 707 m 02:13:45 24.81 Km\h KUOTA EVO
10/10/2017 Show to everybody Giro pomeridiano 52.16 Km 581 m 02:00:19 26.01 Km\h KUOTA EVO
08/10/2017 Show to everybody Giro mattutino 96.52 Km 1692 m 06:18:56 15.28 Km\h KUOTA EVO
06/10/2017 Show to everybody Giro pomeridiano 56.1 Km 251 m 02:31:53 22.16 Km\h KUOTA EVO
04/10/2017 Show to everybody Giro pomeridiano 69.41 Km 350 m 02:11:48 31.6 Km\h KUOTA EVO
02/10/2017 Show to everybody Giro pomeridiano 57.12 Km 602 m 02:10:42 26.22 Km\h KUOTA EVO
29/09/2017 Show to everybody Giro pomeridiano 52.44 Km 1034 m 02:53:42 18.11 Km\h KUOTA EVO
27/09/2017 Show to everybody Giro pomeridiano 62.2 Km 1022 m 02:32:21 24.5 Km\h KUOTA EVO
26/09/2017 Show to everybody Giro pomeridiano 25.82 Km 74 m 01:07:46 22.86 Km\h KUOTA EVO
24/09/2017 Show to everybody Giro mattutino 99.94 Km 1070 m 04:00:25 24.94 Km\h KUOTA EVO
23/09/2017 Show to everybody Giro pomeridiano 51.73 Km 520 m 01:55:42 26.82 Km\h KUOTA EVO
21/09/2017 Show to everybody Giro mattutino 47.49 Km 379 m 01:37:54 29.11 Km\h KUOTA EVO
17/09/2017 Show to everybody Giro mattutino 130.89 Km 1751 m 04:39:59 28.05 Km\h KUOTA EVO
15/09/2017 Show to everybody Giro pomeridiano 71.13 Km 1035 m 02:44:32 25.94 Km\h KUOTA EVO
15/09/2017 Show to everybody Giro pomeridiano 71.13 Km 1035 m 02:44:32 25.94 Km\h KUOTA EVO
13/09/2017 Show to everybody Giro mattutino 63.95 Km 563 m 02:20:04 27.39 Km\h KUOTA EVO
11/09/2017 Show to everybody Giro mattutino 49.94 Km 741 m 01:59:24 25.1 Km\h KUOTA EVO
02/09/2017 Show to everybody Giro mattutino 80.47 Km 728 m 02:57:08 27.26 Km\h KUOTA EVO
28/08/2017 Show to everybody Giro pomeridiano 71.09 Km 342 m 02:34:56 27.53 Km\h KUOTA EVO
28/08/2017 Show to everybody Giro pomeridiano 128.34 Km 1127 m 04:51:23 26.43 Km\h KUOTA EVO
27/08/2017 Show to everybody Giro mattutino con bocciodromo 130.4 Km 890 m 04:09:25 31.37 Km\h KUOTA EVO
26/08/2017 Show to everybody Giro pomeridiano 25.02 Km 54 m 00:57:15 26.23 Km\h KUOTA EVO
25/08/2017 Show to everybody Giro pomeridiano 31.5 Km 407 m 01:23:56 22.52 Km\h KUOTA EVO
23/08/2017 Show to everybody Giro pomeridiano 50.26 Km 781 m 02:03:33 24.41 Km\h KUOTA EVO
22/08/2017 Show to everybody Giro pomeridiano 73.29 Km 934 m 02:36:57 28.02 Km\h KUOTA EVO
20/08/2017 Show to everybody Giro mattutino con bocciodromo 131.2 Km 1090 m 04:32:36 28.88 Km\h KUOTA EVO
19/08/2017 Show to everybody Giro pomeridiano 18.4 Km 29 m 00:41:39 26.5 Km\h KUOTA EVO
19/08/2017 Show to everybody Gara Spianate 65.98 Km 254 m 01:35:12 41.58 Km\h KUOTA EVO
19/08/2017 Show to everybody Giro pomeridiano 15.43 Km 28 m 00:34:49 26.58 Km\h KUOTA EVO
18/08/2017 Show to everybody Giro mattutino 62.08 Km 627 m 02:19:27 26.71 Km\h KUOTA EVO
16/08/2017 Show to everybody Giro mattutino 51.59 Km 211 m 01:47:23 28.82 Km\h KUOTA EVO
15/08/2017 Show to everybody Giro mattutino 73.38 Km 1027 m 02:47:14 26.33 Km\h KUOTA EVO
13/08/2017 Show to everybody Giro mattutino con bocciodromo 125.54 Km 1314 m 04:10:20 30.09 Km\h KUOTA EVO
12/08/2017 Show to everybody Giro mattutino 59.6 Km 407 m 01:59:41 29.88 Km\h KUOTA EVO
10/08/2017 Show to everybody Giro mattutino 74.28 Km 434 m 02:51:58 25.91 Km\h KUOTA EVO
08/08/2017 Show to everybody Giro mattutino 70.64 Km 1495 m 03:13:24 21.91 Km\h KUOTA EVO
06/08/2017 Show to everybody Giro mattutino con bocciodromo 122.5 Km 1598 m 04:37:42 26.47 Km\h KUOTA EVO
04/08/2017 Show to everybody Giro pomeridiano 55.08 Km 842 m 02:05:59 26.23 Km\h KUOTA EVO
02/08/2017 Show to everybody Giro pomeridiano 63.09 Km 1091 m 02:28:09 25.55 Km\h KUOTA EVO
01/08/2017 Show to everybody Giro pomeridiano 65.17 Km 707 m 02:34:58 25.23 Km\h KUOTA EVO
31/07/2017 Show to everybody Giro mattutino 116.98 Km 787 m 03:57:43 29.53 Km\h KUOTA EVO
30/07/2017 Show to everybody Giro mattutino con bocciodromo 133.49 Km 1864 m 05:01:43 26.55 Km\h KUOTA EVO
29/07/2017 Show to everybody Giro mattutino 134.44 Km 1625 m 04:22:04 30.78 Km\h KUOTA EVO
27/07/2017 Show to everybody Giro pomeridiano 66.1 Km 919 m 02:26:46 27.02 Km\h KUOTA EVO
26/07/2017 Show to everybody Giro pomeridiano 24.47 Km 226 m 00:51:52 28.31 Km\h KUOTA EVO
23/07/2017 Show to everybody Giro mattutino con bocciodromo 129.08 Km 2084 m 05:13:16 24.72 Km\h KUOTA EVO
21/07/2017 Show to everybody Giro mattutino 61.32 Km 827 m 02:28:40 24.75 Km\h KUOTA EVO
21/07/2017 Show to everybody Giro pomeridiano 71.72 Km 746 m 02:20:38 30.6 Km\h KUOTA EVO
18/07/2017 Show to everybody Giro serale 36.39 Km 727 m 01:16:54 28.39 Km\h KUOTA EVO
18/07/2017 Show to everybody Giro pomeridiano 71.68 Km 750 m 02:14:44 31.92 Km\h KUOTA EVO
17/07/2017 Show to everybody Giro mattutino 60.97 Km 292 m 02:06:04 29.02 Km\h KUOTA EVO
17/07/2017 Show to everybody Giro mattutino 60.97 Km 292 m 02:06:04 29.02 Km\h KUOTA EVO
16/07/2017 Show to everybody Giro mattutino 99.63 Km 1724 m 04:09:18 23.98 Km\h KUOTA EVO
15/07/2017 Show to everybody Giro pomeridiano 57.27 Km 679 m 02:06:39 27.13 Km\h KUOTA EVO
13/07/2017 Show to everybody Giro pomeridiano con morbo di Dumoulin 33.72 Km 449 m 01:22:10 24.62 Km\h KUOTA EVO
11/07/2017 Show to everybody Giro mattutino 62.83 Km 1019 m 02:29:53 25.15 Km\h KUOTA EVO
09/07/2017 Show to everybody XXII Charly Gaul 55.45 Km 2001 m 02:33:45 21.64 Km\h KUOTA EVO
07/07/2017 Show to everybody monte Bondone in agilità 48.35 Km 1488 m 02:40:26 18.08 Km\h KUOTA EVO
05/07/2017 Show to everybody Giro pomeridiano 54.92 Km 1042 m 02:14:02 24.58 Km\h KUOTA EVO
03/07/2017 Show to everybody Medicina test 44.67 Km 651 m 01:46:04 25.27 Km\h KUOTA EVO
02/07/2017 Show to everybody Giro mattutino con bocciodromo 125.43 Km 1789 m 04:50:46 25.88 Km\h KUOTA EVO
27/06/2017 Show to everybody Allenamento 27-06-2017 alle 14:06:37 57.81 Km 1050 m 02:21:55 24.44 Km\h MERIDA REACTO 7000E
25/06/2017 Show to everybody Allenamento 25-06-2017 alle 07:20:07 46.61 Km 1063 m 03:08:07 14.87 Km\h MERIDA REACTO 7000E
24/06/2017 Show to everybody Allenamento 24-06-2017 alle 12:32:49 50.73 Km 1055 m 02:13:31 22.8 Km\h MERIDA REACTO 7000E
22/06/2017 Show to everybody Allenamento 22-06-2017 alle 14:53:49 50.86 Km 990 m 02:05:20 24.35 Km\h MERIDA REACTO 7000E
20/06/2017 Show to everybody Allenamento 20-06-2017 alle 06:55:10 40.33 Km 131 m 01:30:47 26.65 Km\h MERIDA REACTO 7000E
18/06/2017 Show to everybody Allenamento 18-06-2017 alle 04:57:37 206.46 Km 4913 m 08:50:59 23.33 Km\h MERIDA REACTO 7000E
14/06/2017 Show to everybody Allenamento 14-06-2017 alle 06:08:15 72.12 Km 866 m 02:47:57 25.76 Km\h MERIDA REACTO 7000E
11/06/2017 Show to everybody Allenamento 11-06-2017 alle 06:13:53 129.65 Km 1683 m 04:18:55 30.05 Km\h MERIDA REACTO 7000E
10/06/2017 Show to everybody Allenamento 10-06-2017 alle 13:50:51 35.33 Km 131 m 01:25:51 24.69 Km\h MERIDA REACTO 7000E
09/06/2017 Show to everybody Allenamento 09-06-2017 alle 14:11:19 68.63 Km 878 m 02:42:32 25.33 Km\h MERIDA REACTO 7000E
07/06/2017 Show to everybody Allenamento 07-06-2017 alle 13:10:13 60.62 Km 370 m 02:09:53 28 Km\h MERIDA REACTO 7000E
04/06/2017 Show to everybody Allenamento 04-06-2017 alle 03:52:37 203.91 Km 3087 m 07:50:09 26.02 Km\h MERIDA REACTO 7000E
02/06/2017 Show to everybody Allenamento 02-06-2017 alle 06:06:39 105.67 Km 1137 m 03:47:24 27.88 Km\h MERIDA REACTO 7000E
31/05/2017 Show to everybody Allenamento 31-05-2017 alle 04:22:35 98.04 Km 1123 m 03:34:18 27.45 Km\h MERIDA REACTO 7000E
30/05/2017 Show to everybody Allenamento 30-05-2017 alle 04:24:26 100.16 Km 1140 m 03:43:56 26.84 Km\h MERIDA REACTO 7000E
30/05/2017 Show to everybody Allenamento 30-05-2017 alle 14:02:40 49.95 Km 916 m 02:01:20 24.7 Km\h MERIDA REACTO 7000E
28/05/2017 Show to everybody Allenamento 28-05-2017 alle 04:56:05 150.11 Km 2010 m 05:30:09 27.28 Km\h MERIDA REACTO 7000E
26/05/2017 Show to everybody Allenamento 26-05-2017 alle 15:13:47 54.47 Km 711 m 01:59:17 27.4 Km\h MERIDA REACTO 7000E
24/05/2017 Show to everybody Allenamento 24-05-2017 alle 15:06:57 50.43 Km 899 m 02:00:47 25.05 Km\h MERIDA REACTO 7000E
21/05/2017 Show to everybody Allenamento 21-05-2017 alle 06:02:22 109.06 Km 1060 m 03:54:14 27.94 Km\h MERIDA REACTO 7000E
20/05/2017 Show to everybody Allenamento 20-05-2017 alle 05:31:58 162.67 Km 2450 m 06:18:39 25.78 Km\h MERIDA REACTO 7000E
19/05/2017 Show to everybody Allenamento 19-05-2017 alle 07:26:09 52.63 Km 455 m 01:52:13 28.14 Km\h MERIDA REACTO 7000E
18/05/2017 Show to everybody Allenamento 18-05-2017 alle 07:09:40 52.05 Km 292 m 01:36:25 32.39 Km\h MERIDA REACTO 7000E
16/05/2017 Show to everybody Allenamento 16-05-2017 alle 12:25:07 53.84 Km 1038 m 02:08:02 25.23 Km\h MERIDA REACTO 7000E
14/05/2017 Show to everybody Allenamento 14-05-2017 alle 06:14:22 142.51 Km 1622 m 04:54:42 29.01 Km\h MERIDA REACTO 7000E
11/05/2017 Show to everybody Allenamento 11-05-2017 alle 06:22:10 71.3 Km 1247 m 02:48:39 25.37 Km\h MERIDA REACTO 7000E
10/05/2017 Show to everybody Allenamento 10-05-2017 alle 13:09:39 41.82 Km 705 m 01:39:38 25.19 Km\h MERIDA REACTO 7000E
08/05/2017 Show to everybody Allenamento 08-05-2017 alle 12:19:31 54.9 Km 753 m 02:02:49 26.82 Km\h MERIDA REACTO 7000E
07/05/2017 Show to everybody Allenamento 07-05-2017 alle 06:04:20 111.57 Km 2219 m 04:43:37 23.6 Km\h MERIDA REACTO 7000E
05/05/2017 Show to everybody Allenamento 05-05-2017 alle 15:49:06 55.23 Km 857 m 02:09:34 25.58 Km\h MERIDA REACTO 7000E
01/05/2017 Show to everybody Allenamento 01-05-2017 alle 05:58:11 105.06 Km 958 m 03:46:48 27.79 Km\h MERIDA REACTO 7000E
30/04/2017 Show to everybody Allenamento 30-04-2017 alle 05:58:37 114 Km 1056 m 03:55:04 29.1 Km\h MERIDA REACTO 7000E
29/04/2017 Show to everybody Allenamento 29-04-2017 alle 12:10:19 109.98 Km 817 m 04:00:35 27.43 Km\h MERIDA REACTO 7000E
28/04/2017 Show to everybody Allenamento 28-04-2017 alle 03:41:13 53.91 Km 920 m 01:41:35 31.84 Km\h MERIDA REACTO 7000E
26/04/2017 Show to everybody Allenamento 26-04-2017 alle 03:45:36 53.83 Km 921 m 01:46:09 30.43 Km\h MERIDA REACTO 7000E
25/04/2017 Show to everybody Allenamento 25-04-2017 alle 06:12:49 113.64 Km 713 m 03:42:13 30.68 Km\h MERIDA REACTO 7000E
24/04/2017 Show to everybody Allenamento 24-04-2017 alle 12:02:04 54.09 Km 661 m 01:55:19 28.14 Km\h MERIDA REACTO 7000E
23/04/2017 Show to everybody Allenamento 23-04-2017 alle 06:29:47 117.52 Km 2523 m 04:11:14 28.07 Km\h MERIDA REACTO 7000E
21/04/2017 Show to everybody Allenamento 21-04-2017 alle 12:16:00 50.45 Km 587 m 02:06:26 23.94 Km\h MERIDA REACTO 7000E
19/04/2017 Show to everybody Allenamento 19-04-2017 alle 11:33:28 57.24 Km 979 m 02:12:33 25.91 Km\h MERIDA REACTO 7000E
17/04/2017 Show to everybody Allenamento 17-04-2017 alle 05:13:16.000 150.81 Km 3374 m 06:42:09 22.5 Km\h MERIDA REACTO 7000E
14/04/2017 Show to everybody Allenamento 14-04-2017 alle 12:39:06 55.28 Km 1139 m 02:22:39 23.25 Km\h MERIDA REACTO 7000E
12/04/2017 Show to everybody Allenamento 12-04-2017 alle 06:39:32 69.06 Km 1286 m 02:56:09 23.52 Km\h MERIDA REACTO 7000E
10/04/2017 Show to everybody Allenamento 10-04-2017 alle 06:25:00 55.35 Km 1125 m 02:15:37 24.49 Km\h MERIDA REACTO 7000E
08/04/2017 Show to everybody Allenamento 08-04-2017 alle 12:44:54 67.85 Km 1033 m 02:40:09 25.42 Km\h MERIDA REACTO 7000E
07/04/2017 Show to everybody Allenamento 07-04-2017 alle 12:00:18 54.1 Km 647 m 02:12:10 24.56 Km\h MERIDA REACTO 7000E
05/04/2017 Show to everybody Allenamento 05-04-2017 alle 11:25:17 59.99 Km 1177 m 02:29:54 24.01 Km\h MERIDA REACTO 7000E
02/04/2017 Show to everybody Allenamento 02-04-2017 alle 06:00:45 104.28 Km 2034 m 04:12:19 24.8 Km\h MERIDA REACTO 7000E
31/03/2017 Show to everybody Allenamento 31-03-2017 alle 08:03:10 27.19 Km 443 m 01:09:27 23.49 Km\h MERIDA REACTO 7000E
30/03/2017 Show to everybody Allenamento 30-03-2017 alle 07:51:59 62.94 Km 1167 m 02:44:15 22.99 Km\h KUOTA EVO
28/03/2017 Show to everybody Allenamento 28-03-2017 alle 07:48:36 61.72 Km 1193 m 02:40:51 23.02 Km\h KUOTA EVO
26/03/2017 Show to everybody Allenamento 26-03-2017 alle 05:51:03 101.52 Km 1541 m 03:57:31 25.64 Km\h KUOTA EVO
24/03/2017 Show to everybody Allenamento 24-03-2017 alle 13:29:05 71.85 Km 1138 m 02:50:57 25.22 Km\h KUOTA EVO
22/03/2017 Show to everybody Allenamento 22-03-2017 alle 13:36:55 70.54 Km 1185 m 02:53:09 24.44 Km\h KUOTA EVO
20/03/2017 Show to everybody Allenamento 20-03-2017 alle 13:02:28 73.47 Km 718 m 02:59:37 24.54 Km\h KUOTA EVO
19/03/2017 Show to everybody Allenamento 19-03-2017 alle 07:34:09 102.19 Km 1656 m 03:32:57 28.79 Km\h KUOTA EVO
17/03/2017 Show to everybody Allenamento 17-03-2017 alle 14:39:48 25.73 Km 185 m 01:01:27 25.13 Km\h KUOTA EVO
16/03/2017 Show to everybody Allenamento 16-03-2017 alle 13:03:09 71.2 Km 1052 m 02:48:15 25.39 Km\h KUOTA EVO
14/03/2017 Show to everybody Allenamento 14-03-2017 alle 08:03:47 131.41 Km 2416 m 05:32:38 23.7 Km\h KUOTA EVO
12/03/2017 Show to everybody Allenamento 12-03-2017 alle 07:02:11 103.66 Km 1791 m 04:06:15 25.26 Km\h KUOTA EVO
11/03/2017 Show to everybody Allenamento 11-03-2017 alle 13:10:28 55.72 Km 560 m 02:15:42 24.64 Km\h KUOTA EVO
10/03/2017 Show to everybody Allenamento 10-03-2017 alle 13:01:31 64.81 Km 1027 m 02:40:38 24.21 Km\h KUOTA EVO
08/03/2017 Show to everybody Allenamento 08-03-2017 alle 13:04:58 63.16 Km 1071 m 02:38:55 23.85 Km\h KUOTA EVO
07/03/2017 Show to everybody Allenamento 07-03-2017 alle 12:57:49 56.58 Km 888 m 02:16:38 24.84 Km\h KUOTA EVO
03/03/2017 Show to everybody Allenamento 03-03-2017 alle 13:09:27 74.83 Km 1185 m 03:04:05 24.39 Km\h KUOTA EVO
01/03/2017 Show to everybody Allenamento 01-03-2017 alle 13:12:55 51.91 Km 836 m 02:10:54 23.79 Km\h KUOTA EVO
26/02/2017 Show to everybody Allenamento 26-02-2017 alle 07:27:21 130.61 Km 577 m 04:05:11 31.96 Km\h KUOTA EVO
25/02/2017 Show to everybody Allenamento 25-02-2017 alle 13:22:20 51.88 Km 650 m 02:24:05 21.6 Km\h KUOTA EVO
23/02/2017 Show to everybody Allenamento 23-02-2017 alle 13:43:42 51.79 Km 720 m 02:07:40 24.34 Km\h KUOTA EVO
21/02/2017 Show to everybody Allenamento 21-02-2017 alle 13:38:10 55.13 Km 916 m 02:18:20 23.91 Km\h KUOTA EVO
19/02/2017 Show to everybody Allenamento 19-02-2017 alle 06:56:26 114.25 Km 1443 m 04:37:49 24.67 Km\h KUOTA EVO
18/02/2017 Show to everybody Allenamento 18-02-2017 alle 13:32:59 52.97 Km 174 m 02:03:43 25.69 Km\h KUOTA EVO
16/02/2017 Show to everybody Allenamento 16-02-2017 alle 13:37:20 56.15 Km 754 m 02:06:29 26.64 Km\h KUOTA EVO
14/02/2017 Show to everybody Allenamento 14-02-2017 alle 13:31:29 61.02 Km 1029 m 02:32:32 24 Km\h KUOTA EVO
12/02/2017 Show to everybody Allenamento 12-02-2017 alle 07:17:37 131.05 Km 604 m 04:18:12 30.45 Km\h KUOTA EVO
11/02/2017 Show to everybody Allenamento 11-02-2017 alle 12:56:08 62.96 Km 708 m 02:28:23 25.46 Km\h KUOTA EVO
08/02/2017 Show to everybody Allenamento 08-02-2017 alle 13:06:47 49.85 Km 272 m 01:43:58 28.77 Km\h KUOTA EVO
07/02/2017 Show to everybody Allenamento 07-02-2017 alle 13:01:32 73.14 Km 1045 m 02:53:19 25.32 Km\h KUOTA EVO
03/02/2017 Show to everybody Allenamento 03-02-2017 alle 13:32:53 66.32 Km 1084 m 02:35:12 25.64 Km\h KUOTA EVO
01/02/2017 Show to everybody Allenamento 01-02-2017 alle 13:25:22 67.02 Km 333 m 02:14:57 29.8 Km\h KUOTA EVO
29/01/2017 Show to everybody Allenamento 29-01-2017 alle 07:28:32 114.14 Km 803 m 04:09:21 27.46 Km\h KUOTA EVO
28/01/2017 Show to everybody Allenamento 28-01-2017 alle 13:17:35 60.06 Km 372 m 02:18:21 26.05 Km\h KUOTA EVO
26/01/2017 Show to everybody Allenamento 26-01-2017 alle 13:22:33 62.95 Km 905 m 02:30:42 25.06 Km\h KUOTA EVO
24/01/2017 Show to everybody Allenamento 24-01-2017 alle 13:20:24 70.63 Km 1138 m 02:54:19 24.31 Km\h KUOTA EVO
22/01/2017 Show to everybody Allenamento 22-01-2017 alle 07:52:51 72.44 Km 992 m 02:59:59 24.15 Km\h KUOTA EVO
20/01/2017 Show to everybody Allenamento 20-01-2017 alle 14:12:52 52.22 Km 358 m 01:56:10 26.97 Km\h KUOTA EVO
19/01/2017 Show to everybody Allenamento 19-01-2017 alle 11:28:34 50.35 Km 621 m 01:58:59 25.39 Km\h KUOTA EVO
15/01/2017 Show to everybody Allenamento 15-01-2017 alle 07:35:32 67.09 Km 265 m 02:28:10 27.17 Km\h KUOTA EVO
14/01/2017 Show to everybody Allenamento 14-01-2017 alle 13:09:45 53.38 Km 337 m 02:04:52 25.65 Km\h KUOTA EVO
10/01/2017 Show to everybody Allenamento 10-01-2017 alle 13:31:59 51.73 Km 380 m 01:54:34 27.09 Km\h KUOTA EVO
31/12/2016 Show to everybody Allenamento 31-12-2016 alle 12:38:34 54.01 Km 635 m 02:03:47 26.18 Km\h KUOTA EVO
29/12/2016 Show to everybody Allenamento 29-12-2016 alle 11:27:35 74.48 Km 988 m 03:00:43 24.73 Km\h KUOTA EVO
28/12/2016 Show to everybody Allenamento 28-12-2016 alle 12:44:16 67.02 Km 663 m 02:36:31 25.69 Km\h KUOTA EVO
26/12/2016 Show to everybody Allenamento 26-12-2016 alle 08:02:42 78.93 Km 609 m 02:41:24 29.34 Km\h KUOTA EVO
23/12/2016 Show to everybody Allenamento 23-12-2016 alle 11:00:18 60.52 Km 1078 m 02:37:21 23.08 Km\h KUOTA EVO
22/12/2016 Show to everybody Allenamento 22-12-2016 alle 11:33:54 55.18 Km 583 m 01:55:23 28.69 Km\h KUOTA EVO
21/12/2016 Show to everybody Allenamento 21-12-2016 alle 08:51:25 54.3 Km 711 m 02:09:52 25.09 Km\h KUOTA EVO
18/12/2016 Show to everybody Allenamento 18-12-2016 alle 07:24:50 102.87 Km 929 m 03:54:07 26.36 Km\h KUOTA EVO
15/12/2016 Show to everybody Allenamento 15-12-2016 alle 13:47:39 53.33 Km 373 m 02:00:07 26.64 Km\h KUOTA EVO
13/12/2016 Show to everybody Allenamento 13-12-2016 alle 13:50:57 52.7 Km 718 m 02:11:07 24.12 Km\h KUOTA EVO
10/12/2016 Show to everybody Allenamento 10-12-2016 alle 13:16:26 52.19 Km 193 m 01:55:09 27.19 Km\h KUOTA EVO
08/12/2016 Show to everybody Allenamento 08-12-2016 alle 07:26:54 100.28 Km 713 m 03:37:35 27.65 Km\h KUOTA EVO
07/12/2016 Show to everybody Allenamento 07-12-2016 alle 13:28:52 50.51 Km 676 m 02:10:44 23.18 Km\h KUOTA EVO
04/12/2016 Show to everybody Allenamento 04-12-2016 alle 07:25:05 126.46 Km 969 m 04:22:57 28.86 Km\h KUOTA EVO
02/12/2016 Show to everybody Allenamento 02-12-2016 alle 13:29:08 50.1 Km 300 m 01:51:01 27.08 Km\h KUOTA EVO
30/11/2016 Show to everybody Allenamento 30-11-2016 alle 13:20:51 52.49 Km 679 m 02:09:31 24.32 Km\h KUOTA EVO
27/11/2016 Show to everybody Allenamento 27-11-2016 alle 07:24:45 120.78 Km 504 m 03:50:48 31.4 Km\h KUOTA EVO
23/11/2016 Show to everybody Allenamento 23-11-2016 alle 09:31:54 36.11 Km 465 m 01:27:04 24.88 Km\h KUOTA EVO
20/11/2016 Show to everybody Allenamento 20-11-2016 alle 07:50:34 113.43 Km 684 m 03:44:46 30.28 Km\h KUOTA EVO
17/11/2016 Show to everybody Allenamento 17-11-2016 alle 13:33:04 41.05 Km 545 m 01:46:11 23.2 Km\h KUOTA EVO
15/11/2016 Show to everybody Allenamento 15-11-2016 alle 13:35:15 50.2 Km 528 m 01:59:33 25.2 Km\h KUOTA EVO
13/11/2016 Show to everybody Allenamento 13-11-2016 alle 07:17:36 106.83 Km 637 m 03:41:47 28.9 Km\h KUOTA EVO
12/11/2016 Show to everybody Allenamento 12-11-2016 alle 13:19:58 58.57 Km 326 m 02:11:59 26.63 Km\h KUOTA EVO
09/11/2016 Show to everybody Allenamento 09-11-2016 alle 13:24:53 50.1 Km 251 m 01:44:29 28.77 Km\h KUOTA EVO
01/11/2016 Show to everybody Allenamento 01-11-2016 alle 06:58:12 89.89 Km 302 m 02:54:46 30.86 Km\h KUOTA EVO
29/10/2016 Show to everybody Allenamento 29-10-2016 alle 10:24:31 74.13 Km 347 m 02:39:53 27.82 Km\h KUOTA EVO
02/09/2016 Show to everybody Allenamento 02-09-2016 alle 12:31:16 61.83 Km 392 m 02:26:53 25.25 Km\h KUOTA EVO
29/08/2016 Show to everybody Allenamento 29-08-2016 alle 15:34:22 38.15 Km 140 m 01:20:34 28.41 Km\h KUOTA EVO
28/08/2016 Show to everybody poggio_adorno (1) 47.73 Km 186 m 01:40:42 28.44 Km\h KUOTA EVO
03/08/2016 Show to everybody Allenamento 03-08-2016 alle 06:46:45 60 Km 632 m 02:33:06 23.51 Km\h KUOTA EVO
21/07/2016 Show to everybody Allenamento 21-07-2016 alle 15:46:42 53.17 Km 341 m 02:00:00 26.58 Km\h KUOTA EVO
19/07/2016 Show to everybody Allenamento 19-07-2016 alle 14:57:22 41.63 Km 471 m 01:31:04 27.43 Km\h KUOTA EVO
17/07/2016 Show to everybody Allenamento 17-07-2016 alle 05:39:50 55.5 Km 1992 m 02:45:23 20.14 Km\h KUOTA EVO
12/07/2016 Show to everybody Allenamento 12-07-2016 alle 05:33:06 52.62 Km 921 m 02:04:02 25.45 Km\h KUOTA EVO
10/07/2016 Show to everybody Allenamento 10-07-2016 alle 05:36:50 133.18 Km 1083 m 04:20:26 30.68 Km\h KUOTA EVO
07/07/2016 Show to everybody Allenamento 07-07-2016 alle 05:25:20 66.48 Km 1205 m 02:52:33 23.12 Km\h KUOTA EVO
06/07/2016 Show to everybody Allenamento 06-07-2016 alle 06:06:25 65.06 Km 1080 m 02:34:36 25.25 Km\h KUOTA EVO
03/07/2016 Show to everybody Allenamento 03-07-2016 alle 05:46:37 132.32 Km 1494 m 04:34:42 28.9 Km\h KUOTA EVO
01/07/2016 Show to everybody Allenamento 01-07-2016 alle 14:04:45 64.57 Km 815 m 02:36:45 24.72 Km\h KUOTA EVO
29/06/2016 Show to everybody Allenamento 29-06-2016 alle 06:19:54 100.85 Km 1673 m 04:04:54 24.71 Km\h KUOTA EVO
27/06/2016 Show to everybody Allenamento 27-06-2016 alle 13:03:16 60.11 Km 917 m 02:19:07 25.92 Km\h KUOTA EVO
26/06/2016 Show to everybody Allenamento 26-06-2016 alle 06:39:32 81.33 Km 2226 m 04:08:11 19.66 Km\h KUOTA EVO
24/06/2016 Show to everybody Allenamento 24-06-2016 alle 14:03:08 52.25 Km 370 m 01:59:28 26.24 Km\h KUOTA EVO
22/06/2016 Show to everybody Allenamento 22-06-2016 alle 15:15:56 42.97 Km 360 m 01:08:12 37.8 Km\h KUOTA EVO
22/06/2016 Show to everybody Allenamento 22-06-2016 alle 14:08:46 14.8 Km 61 m 00:36:09 24.56 Km\h KUOTA EVO
22/06/2016 Show to everybody Allenamento 22-06-2016 alle 16:24:24 20.28 Km 106 m 00:48:18 25.2 Km\h KUOTA EVO
21/06/2016 Show to everybody Allenamento 21-06-2016 alle 13:49:17 53.16 Km 361 m 01:56:47 27.31 Km\h KUOTA EVO
19/06/2016 Show to everybody Allenamento 19-06-2016 alle 06:57:23 79.72 Km 668 m 02:01:03 39.51 Km\h KUOTA EVO
16/06/2016 Show to everybody Allenamento 16-06-2016 alle 14:31:17 51.01 Km 432 m 01:52:40 27.17 Km\h KUOTA EVO
15/06/2016 Show to everybody uscita_pomeridiana (1) 69.93 Km 865 m 02:45:59 25.28 Km\h KUOTA EVO
12/06/2016 Show to everybody Allenamento 12-06-2016 alle 04:28:08 142.35 Km 3350 m 07:03:37 20.16 Km\h KUOTA EVO
10/06/2016 Show to everybody Allenamento 10-06-2016 alle 12:25:58 65.5 Km 753 m 02:22:17 27.62 Km\h KUOTA EVO
07/06/2016 Show to everybody Allenamento 07-06-2016 alle 12:24:36 84.54 Km 1388 m 03:22:14 25.08 Km\h KUOTA EVO
05/06/2016 Show to everybody Allenamento 05-06-2016 alle 05:44:33 133.3 Km 1805 m 05:01:14 26.55 Km\h KUOTA EVO
31/05/2016 Show to everybody Allenamento 31-05-2016 alle 13:15:38 58 Km 358 m 01:56:37 29.84 Km\h KUOTA EVO
30/05/2016 Show to everybody Allenamento 30-05-2016 alle 04:41:09 66.27 Km 278 m 02:35:19 25.6 Km\h KUOTA EVO
28/05/2016 Show to everybody Allenamento 28-05-2016 alle 07:27:06 86.3 Km 1495 m 02:59:45 28.81 Km\h KUOTA EVO
25/05/2016 Show to everybody Allenamento 25-05-2016 alle 12:40:41 86.67 Km 1641 m 03:41:16 23.5 Km\h KUOTA EVO
24/05/2016 Show to everybody Allenamento 24-05-2016 alle 15:18:08 51.12 Km 660 m 01:55:24 26.58 Km\h KUOTA EVO
20/05/2016 Show to everybody Allenamento 20-05-2016 alle 15:23:47 51.51 Km 461 m 01:46:34 29 Km\h KUOTA EVO
18/05/2016 Show to everybody Allenamento 18-05-2016 alle 14:57:24 51.39 Km 742 m 01:54:13 26.99 Km\h KUOTA EVO
17/05/2016 Show to everybody Allenamento 17-05-2016 alle 06:52:48 74.58 Km 1211 m 03:02:53 24.47 Km\h KUOTA EVO
15/05/2016 Show to everybody Allenamento 15-05-2016 alle 06:01:27 56.84 Km 1111 m 02:21:32 24.1 Km\h KUOTA EVO
13/05/2016 Show to everybody Allenamento 13-05-2016 alle 12:32:34 39.98 Km 556 m 01:22:55 28.93 Km\h KUOTA EVO
10/05/2016 Show to everybody Allenamento 10-05-2016 alle 10:41:36 50.77 Km 970 m 02:20:24 21.7 Km\h KUOTA EVO
09/05/2016 Show to everybody Allenamento 09-05-2016 alle 11:49:44 71.78 Km 1409 m 03:07:24 22.98 Km\h KUOTA EVO
08/05/2016 Show to everybody Allenamento 08-05-2016 alle 06:58:15 53.78 Km 686 m 02:01:59 26.45 Km\h KUOTA EVO
05/05/2016 Show to everybody Allenamento 05-05-2016 alle 12:38:47 68.06 Km 1161 m 03:05:14 22.05 Km\h KUOTA EVO
04/05/2016 Show to everybody Allenamento 04-05-2016 alle 07:19:21 72.67 Km 1315 m 02:56:4